Time;durP1;ratioP1;P1;durP2;ratioP2;P2;SDS_P1;SDS_P2;PMS_P1;PMS_P2;Temp;Humidity;BMP_temperature;BMP_pressure;BME280_temperature;BME280_humidity;BME280_pressure;Samples;Min_cycle;Max_cycle;Signal;HPM_P1;HPM_P2
2023/01/13 05:57:48;;;;;;;;;0.00;0.00;;;;;8.94;100.00;100982.81;5721004;23;49774;-69
2023/01/13 06:00:14;;;;;;;;;1.25;1.25;;;;;9.54;100.00;101087.66;4968054;28;50142;-77
2023/01/13 06:02:39;;;;;;;;;0.50;0.50;;;;;9.44;100.00;101086.50;4977922;28;49934;-77
2023/01/13 06:05:05;;;;;;;;;0.50;0.00;;;;;9.50;100.00;101101.53;4979418;28;49340;-67
2023/01/13 06:07:31;;;;;;;;;0.75;0.75;;;;;9.40;100.00;101097.75;4957369;28;50339;-70
2023/01/13 06:09:56;;;;;;;;;2.00;1.00;;;;;9.23;100.00;101075.38;4973643;28;49740;-81
2023/01/13 06:12:22;;;;;;;;;4.50;2.00;;;;;8.46;100.00;100949.91;4963443;28;49940;-81
2023/01/13 06:14:47;;;;;;;;;3.00;1.00;;;;;9.32;100.00;101102.75;4972330;28;49709;-67
2023/01/13 06:17:14;;;;;;;;;4.00;3.00;;;;;8.94;100.00;101043.91;4956759;28;51326;-76
2023/01/13 06:19:40;;;;;;;;;3.25;2.00;;;;;9.49;100.00;101154.78;4982941;28;49731;-83
2023/01/13 06:22:31;;;;;;;;;1.50;1.50;;;;;8.74;100.00;101060.69;4987148;28;49465;-75
2023/01/13 06:24:58;;;;;;;;;4.25;1.75;;;;;9.10;100.00;101101.19;4973930;28;50053;-66
2023/01/13 06:27:23;;;;;;;;;0.75;0.00;;;;;9.27;100.00;101134.91;4954570;28;50633;-73
2023/01/13 06:29:49;;;;;;;;;2.00;2.00;;;;;9.26;100.00;101168.03;4974700;28;50107;-73
2023/01/13 06:32:20;;;;;;;;;0.75;0.75;;;;;9.39;100.00;101170.22;4973598;28;49678;-71
2023/01/13 06:34:52;;;;;;;;;3.00;3.00;;;;;9.07;100.00;101126.38;4970809;28;50117;-70
2023/01/13 06:37:24;;;;;;;;;2.00;0.00;;;;;9.34;100.00;101195.38;4970719;28;50733;-73
2023/01/13 06:39:50;;;;;;;;;2.50;0.50;;;;;8.59;100.00;101048.91;4971126;28;49688;-69
2023/01/13 06:44:59;;;;;;;;;1.00;1.00;;;;;9.12;100.00;101141.41;4970425;28;49652;-69
2023/01/13 06:47:24;;;;;;;;;4.50;1.25;;;;;9.20;100.00;101180.94;4970257;28;50452;-70
2023/01/13 06:49:50;;;;;;;;;0.25;0.25;;;;;8.59;100.00;101062.00;4970597;28;49830;-70
2023/01/13 06:52:15;;;;;;;;;4.25;1.75;;;;;9.21;100.00;101176.59;4970488;28;49742;-74
2023/01/13 06:54:40;;;;;;;;;1.50;1.00;;;;;9.15;100.00;101174.66;4970798;28;49803;-68
2023/01/13 06:57:06;;;;;;;;;2.50;1.25;;;;;8.81;100.00;101115.94;4970341;28;50190;-76
2023/01/13 06:59:34;;;;;;;;;3.00;1.50;;;;;8.93;100.00;101135.50;4970294;28;49940;-76
2023/01/13 07:02:00;;;;;;;;;2.00;1.75;;;;;9.16;100.00;101165.94;4970448;28;50105;-76
2023/01/13 07:04:25;;;;;;;;;0.00;0.00;;;;;9.10;100.00;101156.19;4970560;28;50242;-71
2023/01/13 07:06:50;;;;;;;;;0.75;0.75;;;;;9.21;100.00;101179.22;4970047;28;50981;-74
2023/01/13 07:09:16;;;;;;;;;1.25;0.00;;;;;9.16;100.00;101164.22;4973320;28;49789;-71
2023/01/13 07:11:41;;;;;;;;;2.25;1.00;;;;;8.91;100.00;101143.31;4973725;28;49784;-72
2023/01/13 07:16:52;;;;;;;;;6.75;4.00;;;;;9.23;100.00;101202.00;4976489;28;50046;-69
2023/01/13 07:19:22;;;;;;;;;1.25;1.25;;;;;9.07;100.00;101174.44;4981490;28;50126;-68
2023/01/13 07:21:47;;;;;;;;;2.50;2.50;;;;;8.80;100.00;101128.97;4976899;28;50094;-72
2023/01/13 07:24:13;;;;;;;;;1.25;1.25;;;;;8.89;100.00;101130.19;4977669;28;49800;-72
2023/01/13 07:26:38;;;;;;;;;2.50;1.50;;;;;9.47;100.00;101241.22;4973486;28;50268;-67
2023/01/13 07:29:03;;;;;;;;;1.75;1.25;;;;;8.66;100.00;101083.13;4964059;28;50719;-72
2023/01/13 07:31:29;;;;;;;;;2.25;1.00;;;;;9.51;100.00;101231.72;4982101;28;49783;-68
2023/01/13 07:33:55;;;;;;;;;3.75;1.25;;;;;9.54;100.00;101253.66;4973499;28;49813;-69
2023/01/13 07:36:20;;;;;;;;;5.50;2.00;;;;;9.37;100.00;101205.09;4967995;28;50365;-79
2023/01/13 07:38:45;;;;;;;;;3.50;2.25;;;;;9.57;100.00;101248.56;4966621;28;50116;-73
2023/01/13 07:44:05;;;;;;;;;1.00;1.00;;;;;9.30;100.00;101196.13;4944006;28;50018;-75
2023/01/13 07:46:31;;;;;;;;;3.00;0.00;;;;;9.09;100.00;101143.94;4968864;28;49988;-73
2023/01/13 07:48:56;;;;;;;;;1.75;1.75;;;;;9.33;100.00;101205.81;4973193;28;50370;-68
2023/01/13 07:51:21;;;;;;;;;1.75;1.75;;;;;9.53;100.00;101259.75;4968939;28;49810;-77
2023/01/13 07:53:47;;;;;;;;;2.00;0.25;;;;;9.55;100.00;101260.69;4967871;28;50016;-68
2023/01/13 07:56:12;;;;;;;;;2.75;1.00;;;;;9.69;100.00;101304.00;4965271;28;52095;-68
2023/01/13 07:58:38;;;;;;;;;2.50;0.00;;;;;9.50;100.00;101249.19;4959041;28;49857;-73
2023/01/13 08:01:11;;;;;;;;;1.50;1.00;;;;;9.31;100.00;101234.59;4967345;28;49692;-68
2023/01/13 08:03:37;;;;;;;;;2.75;1.00;;;;;9.01;100.00;101171.59;4970938;28;49790;-72
2023/01/13 08:06:04;;;;;;;;;2.25;2.00;;;;;9.70;100.00;101292.66;4980186;28;49789;-72
2023/01/13 08:08:29;;;;;;;;;5.00;2.25;;;;;9.69;100.00;101311.84;4964734;28;49884;-72
2023/01/13 08:10:58;;;;;;;;;1.00;1.00;;;;;9.02;100.00;101194.31;4973986;28;49981;-70
2023/01/13 08:13:24;;;;;;;;;2.00;2.00;;;;;9.67;100.00;101307.41;4974517;28;50168;-70
2023/01/13 08:15:57;;;;;;;;;4.00;2.25;;;;;9.49;100.00;101276.25;4975766;28;50660;-81
2023/01/13 08:18:22;;;;;;;;;1.00;1.00;;;;;8.92;100.00;101184.38;4970927;28;50020;-74
2023/01/13 08:20:51;;;;;;;;;1.25;1.25;;;;;9.20;100.00;101232.44;4968069;28;49852;-73
2023/01/13 08:23:16;;;;;;;;;1.75;1.00;;;;;9.62;100.00;101304.63;4969058;28;50792;-73
2023/01/13 08:25:42;;;;;;;;;2.00;2.00;;;;;9.62;100.00;101325.59;4978345;28;50318;-79
2023/01/13 08:28:07;;;;;;;;;1.00;1.00;;;;;9.49;100.00;101312.03;4961133;28;50777;-76
2023/01/13 08:30:32;;;;;;;;;1.00;0.00;;;;;9.14;100.00;101220.91;4965475;28;49910;-68
2023/01/13 08:32:58;;;;;;;;;2.75;2.00;;;;;8.79;100.00;101166.47;4961453;28;49751;-70
2023/01/13 08:35:23;;;;;;;;;2.25;2.25;;;;;8.99;100.00;101196.84;4962191;28;50291;-67
2023/01/13 08:37:51;;;;;;;;;4.75;3.50;;;;;9.20;100.00;101224.59;4975442;28;49866;-68
2023/01/13 08:40:17;;;;;;;;;0.00;0.00;;;;;9.82;100.00;101320.13;4970043;28;50057;-70
2023/01/13 08:42:43;;;;;;;;;2.00;1.00;;;;;9.23;100.00;101224.69;4955503;28;49961;-68
2023/01/13 08:45:12;;;;;;;;;1.00;1.00;;;;;9.54;100.00;101276.38;4968995;28;50675;-70
2023/01/13 08:47:37;;;;;;;;;3.75;1.50;;;;;9.86;100.00;101340.38;4971772;28;49677;-69
2023/01/13 08:50:04;;;;;;;;;5.25;3.00;;;;;9.83;100.00;101337.63;4973429;28;49979;-68
2023/01/13 08:52:29;;;;;;;;;3.50;3.00;;;;;9.04;100.00;101204.84;4972671;28;49605;-69
2023/01/13 08:54:55;;;;;;;;;1.75;1.00;;;;;7.99;100.00;101050.25;4968021;28;49935;-67
2023/01/13 08:57:21;;;;;;;;;2.25;1.25;;;;;9.85;100.00;101341.22;4971492;28;49890;-67
2023/01/13 08:59:46;;;;;;;;;4.00;1.00;;;;;9.78;100.00;101326.13;4973659;28;49509;-68
2023/01/13 09:02:17;;;;;;;;;8.00;2.50;;;;;9.88;100.00;101343.94;4977368;28;49936;-69
2023/01/13 09:04:43;;;;;;;;;2.50;1.00;;;;;9.30;100.00;101255.50;4970966;28;49916;-69
2023/01/13 09:07:09;;;;;;;;;5.00;1.00;;;;;9.94;100.00;101359.84;4971403;28;49689;-68
2023/01/13 09:09:35;;;;;;;;;1.50;0.25;;;;;9.90;100.00;101340.50;4971727;28;49970;-69
2023/01/13 09:14:44;;;;;;;;;2.75;2.75;;;;;9.66;100.00;101298.66;4971313;28;50325;-69
2023/01/13 09:17:10;;;;;;;;;1.00;1.00;;;;;9.25;100.00;101221.28;4971239;28;49842;-69
2023/01/13 09:19:36;;;;;;;;;2.00;1.50;;;;;9.04;100.00;101171.69;4971167;28;49776;-69
2023/01/13 09:22:01;;;;;;;;;1.25;1.00;;;;;9.87;100.00;101324.69;4971415;28;50029;-70
2023/01/13 09:24:27;;;;;;;;;2.75;1.25;;;;;9.48;100.00;101248.25;4971752;28;49726;-70
2023/01/13 09:26:53;;;;;;;;;0.25;0.25;;;;;9.86;100.00;101324.66;4970087;28;49845;-69
2023/01/13 09:29:19;;;;;;;;;4.00;2.25;;;;;9.33;100.00;101227.66;4971158;28;49847;-68
2023/01/13 09:31:44;;;;;;;;;2.00;1.25;;;;;9.83;100.00;101319.28;4970937;28;49929;-68
2023/01/13 09:36:59;;;;;;;;;1.25;1.25;;;;;10.10;100.00;101364.75;4971344;28;49862;-68
2023/01/13 09:39:25;;;;;;;;;3.00;1.75;;;;;9.36;100.00;101253.06;4971135;28;49543;-69
2023/01/13 09:44:47;;;;;;;;;3.50;1.00;;;;;10.07;100.00;101343.69;4971061;28;49786;-68
2023/01/13 09:47:34;;;;;;;;;2.00;1.00;;;;;10.14;100.00;101352.66;4970619;28;50115;-68
2023/01/13 09:50:32;;;;;;;;;3.00;1.75;;;;;10.30;100.00;101394.28;4974827;28;49815;-68
2023/01/13 09:52:59;;;;;;;;;4.00;2.00;;;;;9.75;100.00;101296.34;4970507;28;49628;-69
2023/01/13 09:55:44;;;;;;;;;0.75;0.50;;;;;10.11;100.00;101363.03;4970912;28;50928;-70
2023/01/13 09:58:13;;;;;;;;;0.00;0.00;;;;;10.15;100.00;101372.81;4970514;28;49986;-68
2023/01/13 10:00:46;;;;;;;;;6.25;2.25;;;;;10.25;100.00;101394.16;4970608;28;50132;-69
2023/01/13 10:03:21;;;;;;;;;1.25;1.25;;;;;9.95;100.00;101320.59;4971096;28;49753;-69
2023/01/13 10:05:55;;;;;;;;;4.00;2.75;;;;;9.88;100.00;101294.09;4970761;28;51679;-70
2023/01/13 10:08:32;;;;;;;;;2.00;2.00;;;;;10.43;100.00;101388.63;4970803;28;49770;-69
2023/01/13 10:13:12;;;;;;;;;3.00;2.00;;;;;10.12;100.00;101344.72;4965927;28;49867;-68
2023/01/13 10:13:51;;;;;;;;;3.25;2.00;;;;;10.56;100.00;101400.38;4975264;28;49691;-69
2023/01/13 10:17:03;;;;;;;;;1.50;1.50;;;;;10.66;100.00;101410.31;4974035;28;49888;-70
2023/01/13 10:19:36;;;;;;;;;2.75;1.50;;;;;9.92;100.00;101293.34;4973872;28;49779;-69
2023/01/13 10:22:20;;;;;;;;;2.75;1.75;;;;;10.15;100.00;101333.44;4949019;28;50314;-68
2023/01/13 10:25:21;;;;;;;;;2.00;1.00;;;;;10.72;100.00;101426.28;4965602;28;50041;-68
2023/01/13 10:27:50;;;;;;;;;2.00;2.00;;;;;10.50;100.00;101368.66;4931999;28;49718;-68
2023/01/13 10:30:30;;;;;;;;;2.00;0.50;;;;;10.74;100.00;101423.69;4943592;28;50076;-69
2023/01/13 10:32:58;;;;;;;;;1.00;1.00;;;;;10.17;100.00;101292.41;4972302;28;49820;-69
2023/01/13 10:35:56;;;;;;;;;2.25;1.50;;;;;11.07;100.00;101403.66;4970301;28;49871;-69
2023/01/13 10:38:26;;;;;;;;;2.00;2.00;;;;;11.34;100.00;101424.59;4964822;28;49865;-70
2023/01/13 10:40:59;;;;;;;;;2.50;1.75;;;;;11.47;100.00;101431.06;4970292;28;50072;-70
2023/01/13 10:43:26;;;;;;;;;2.25;0.25;;;;;11.48;100.00;101419.69;4974017;28;49916;-70
2023/01/13 10:46:09;;;;;;;;;3.00;2.75;;;;;11.10;100.00;101356.47;4973968;28;49906;-70
2023/01/13 10:48:41;;;;;;;;;1.00;1.00;;;;;11.31;100.00;101369.31;4974021;28;49724;-72
2023/01/13 10:51:22;;;;;;;;;3.00;2.00;;;;;11.72;100.00;101427.38;4977750;28;49937;-70
2023/01/13 10:53:52;;;;;;;;;1.75;0.75;;;;;11.41;100.00;101423.91;4977538;28;49768;-66
2023/01/13 10:56:19;;;;;;;;;3.50;1.25;;;;;11.60;100.00;101417.44;4976819;28;49673;-70
2023/01/13 10:58:45;;;;;;;;;1.25;1.00;;;;;11.54;100.00;101409.34;4974017;28;50933;-69
2023/01/13 11:01:26;;;;;;;;;0.00;0.00;;;;;11.35;100.00;101389.56;4974642;28;50029;-68
2023/01/13 11:03:55;;;;;;;;;3.00;3.00;;;;;11.49;100.00;101402.22;4974155;28;49833;-69
2023/01/13 11:06:25;;;;;;;;;2.00;1.50;;;;;11.76;100.00;101460.78;4955588;28;49762;-70
2023/01/13 11:08:54;;;;;;;;;1.00;1.00;;;;;11.52;100.00;101447.88;4974806;28;51328;-70
2023/01/13 11:11:40;;;;;;;;;0.00;0.00;;;;;11.09;100.00;101372.16;4975079;28;50144;-74
2023/01/13 11:16:57;;;;;;;;;2.00;0.00;;;;;11.74;100.00;101475.66;4975526;28;50002;-71
2023/01/13 11:19:27;;;;;;;;;1.50;0.00;;;;;11.17;100.00;101363.66;4976603;28;50792;-66
2023/01/13 11:21:55;;;;;;;;;0.50;0.00;;;;;11.87;100.00;101477.81;4973523;28;49687;-68
2023/01/13 11:24:35;;;;;;;;;0.75;0.25;;;;;11.81;100.00;101463.59;4973346;28;49774;-68
2023/01/13 11:27:00;;;;;;;;;1.50;0.50;;;;;11.96;100.00;101482.41;4972832;28;50178;-67
2023/01/13 11:29:37;;;;;;;;;3.00;1.00;;;;;11.61;100.00;101415.69;4972964;28;52084;-68
2023/01/13 11:32:11;;;;;;;;;4.50;1.50;;;;;11.97;100.00;101466.69;4973220;28;50108;-69
2023/01/13 11:34:41;;;;;;;;;0.50;0.50;;;;;12.08;100.00;101472.22;4955348;28;49933;-68
2023/01/13 11:37:19;;;;;;;;;0.50;0.25;;;;;11.80;100.00;101425.88;4973409;28;49875;-69
2023/01/13 11:39:52;;;;;;;;;2.75;2.50;;;;;12.25;100.00;101488.44;4972704;28;51226;-66
2023/01/13 11:42:30;;;;;;;;;0.00;0.00;;;;;11.77;100.00;101391.53;4972740;28;49764;-69
2023/01/13 11:45:06;;;;;;;;;1.00;1.00;;;;;12.41;100.00;101490.59;4972844;28;49969;-67
2023/01/13 11:47:33;;;;;;;;;4.50;2.00;;;;;12.26;100.00;101464.81;4972861;28;49800;-68
2023/01/13 11:50:00;;;;;;;;;1.50;0.50;;;;;12.42;100.00;101479.22;4972543;28;49769;-69
2023/01/13 11:52:37;;;;;;;;;1.00;1.00;;;;;12.55;100.00;101490.97;4972851;28;49631;-68
2023/01/13 11:55:03;;;;;;;;;1.50;0.00;;;;;12.59;100.00;101501.59;4972469;28;49684;-66
2023/01/13 11:57:38;;;;;;;;;4.00;0.50;;;;;12.62;100.00;101500.75;4972518;28;49594;-67
2023/01/13 12:00:39;;;;;;;;;2.00;2.00;;;;;12.49;100.00;101481.16;4972685;28;49874;-67
2023/01/13 12:03:32;;;;;;;;;3.00;2.00;;;;;12.53;100.00;101493.53;4972499;28;50146;-69
2023/01/13 12:06:14;;;;;;;;;0.25;0.25;;;;;12.30;100.00;101444.69;4972662;28;49678;-67
2023/01/13 12:08:54;;;;;;;;;0.00;0.00;;;;;12.53;100.00;101490.00;4968595;28;49884;-68
2023/01/13 12:14:44;;;;;;;;;1.75;0.75;;;;;12.45;100.00;101483.66;4972682;28;49664;-67
2023/01/13 12:17:33;;;;;;;;;4.25;2.25;;;;;12.41;100.00;101489.72;4972321;28;49972;-68
2023/01/13 12:20:17;;;;;;;;;1.75;1.75;;;;;12.03;100.00;101436.97;4966748;28;49854;-67
2023/01/13 12:22:47;;;;;;;;;2.75;0.50;;;;;12.18;100.00;101445.28;4972132;28;50007;-68
2023/01/13 12:25:36;;;;;;;;;0.25;0.25;;;;;12.40;100.00;101493.19;4972138;28;49874;-67
2023/01/13 12:28:15;;;;;;;;;2.00;1.00;;;;;12.30;100.00;101481.56;4972207;28;50172;-67
2023/01/13 12:30:49;;;;;;;;;1.75;1.75;;;;;12.32;100.00;101506.16;4972500;28;49806;-67
2023/01/13 12:33:43;;;;;;;;;3.50;2.00;;;;;11.96;100.00;101420.13;4972403;28;50015;-68
2023/01/13 12:36:26;;;;;;;;;0.00;0.00;;;;;12.41;100.00;101502.88;4972468;28;49962;-67
2023/01/13 12:38:58;;;;;;;;;3.00;1.00;;;;;12.37;100.00;101517.72;4932158;28;50983;-70
2023/01/13 12:41:37;;;;;;;;;0.50;0.25;;;;;12.43;100.00;101507.31;4943403;28;50324;-70
2023/01/13 12:44:19;;;;;;;;;5.00;1.00;;;;;12.03;100.00;101415.94;4967315;28;51138;-66
2023/01/13 12:46:44;;;;;;;;;4.75;3.00;;;;;12.70;100.00;101504.47;4971037;28;50358;-67
2023/01/13 12:49:23;;;;;;;;;5.00;3.00;;;;;12.27;100.00;101436.72;4963398;28;49834;-68
2023/01/13 12:51:51;;;;;;;;;2.50;1.50;;;;;12.69;100.00;101510.59;4962694;28;49947;-68
2023/01/13 12:54:44;;;;;;;;;1.75;0.00;;;;;12.68;100.00;101516.72;4971087;28;50745;-69
2023/01/13 12:57:15;;;;;;;;;4.00;1.50;;;;;12.76;100.00;101511.66;4968248;28;50094;-66
2023/01/13 12:59:47;;;;;;;;;2.50;0.50;;;;;12.77;100.00;101490.59;4963131;28;50082;-71
2023/01/13 13:02:14;;;;;;;;;1.00;1.00;;;;;12.92;100.00;101510.25;4963078;28;50303;-67
2023/01/13 13:04:42;;;;;;;;;2.75;1.00;;;;;12.99;100.00;101509.53;4964536;28;51911;-69
2023/01/13 13:07:12;;;;;;;;;3.00;2.00;;;;;12.36;100.00;101392.19;4962506;28;50128;-69
2023/01/13 13:09:44;;;;;;;;;4.50;2.00;;;;;12.49;100.00;101424.97;4955325;28;49791;-67
2023/01/13 13:15:25;;;;;;;;;1.00;1.00;;;;;12.46;100.00;101383.66;4964399;28;50065;-73
2023/01/13 13:18:16;;;;;;;;;1.25;1.25;;;;;13.38;100.00;101501.66;4959388;28;49832;-66
2023/01/13 13:20:58;;;;;;;;;4.50;3.00;;;;;13.41;100.00;101506.97;4964784;28;49843;-66
2023/01/13 13:23:35;;;;;;;;;2.50;1.00;;;;;13.40;100.00;101510.47;4948616;28;50212;-66
2023/01/13 13:26:13;;;;;;;;;3.75;1.25;;;;;13.39;100.00;101516.63;4961562;28;51563;-67
2023/01/13 13:29:04;;;;;;;;;3.25;1.00;;;;;12.78;100.00;101428.25;4963956;28;49963;-66
2023/01/13 13:31:54;;;;;;;;;6.75;4.75;;;;;13.33;100.00;101492.78;4962761;28;50012;-66
2023/01/13 13:34:23;;;;;;;;;2.00;2.00;;;;;13.46;100.00;101513.25;4946271;28;50262;-67
2023/01/13 13:36:55;;;;;;;;;3.00;1.75;;;;;12.84;100.00;101394.16;4964257;28;49770;-67
2023/01/13 13:46:45;;;;;;;;;3.00;2.75;;;;;12.86;100.00;101405.63;4955195;28;50779;-68
2023/01/13 13:48:37;;;;;;;;;3.00;2.00;;;;;13.05;100.00;101518.50;4968646;28;49770;-71
2023/01/13 13:51:23;;;;;;;;;2.50;1.50;;;;;13.04;100.00;101493.00;4953306;28;50110;-69
2023/01/13 13:53:49;;;;;;;;;1.75;1.00;;;;;12.77;100.00;101495.88;4964551;28;49896;-70
2023/01/13 13:56:21;;;;;;;;;2.50;2.00;;;;;12.66;100.00;101470.13;4964039;28;49934;-70
2023/01/13 13:58:48;;;;;;;;;2.50;1.25;;;;;12.77;100.00;101516.06;4963430;28;50959;-69
2023/01/13 14:01:31;;;;;;;;;2.00;2.00;;;;;12.40;100.00;101457.22;4963941;28;49943;-69
2023/01/13 14:04:12;;;;;;;;;2.50;1.50;;;;;12.91;100.00;101554.16;4964032;28;50108;-70
2023/01/13 14:06:54;;;;;;;;;2.75;1.00;;;;;12.51;100.00;101502.25;4963950;28;49813;-69
2023/01/13 14:09:21;;;;;;;;;0.50;0.50;;;;;12.72;100.00;101565.09;4961188;28;50662;-76
2023/01/13 14:11:58;;;;;;;;;3.50;3.50;;;;;12.46;100.00;101517.94;4950581;28;50181;-70
2023/01/13 14:14:24;;;;;;;;;1.00;1.00;;;;;12.78;100.00;101576.69;4967297;28;49995;-74
2023/01/13 14:16:50;;;;;;;;;3.00;2.50;;;;;12.65;100.00;101561.44;4962735;28;49830;-75
2023/01/13 14:19:25;;;;;;;;;2.50;2.00;;;;;12.33;100.00;101514.09;4963723;28;49826;-72
2023/01/13 14:21:50;;;;;;;;;2.00;1.00;;;;;12.30;100.00;101506.13;4956284;28;49870;-70
2023/01/13 14:24:19;;;;;;;;;0.75;0.75;;;;;12.52;100.00;101538.28;4966649;28;49905;-70
2023/01/13 14:26:50;;;;;;;;;2.25;1.00;;;;;12.40;100.00;101517.78;4974584;28;49982;-69
2023/01/13 14:29:21;;;;;;;;;1.00;1.00;;;;;12.72;100.00;101579.16;4968997;28;49876;-69
2023/01/13 14:31:50;;;;;;;;;2.25;1.00;;;;;12.50;100.00;101535.59;4965968;28;49986;-70
2023/01/13 14:34:17;;;;;;;;;2.50;2.50;;;;;12.40;100.00;101523.06;4971953;28;49947;-69
2023/01/13 14:36:48;;;;;;;;;4.00;3.00;;;;;12.41;100.00;101524.84;4970849;28;49879;-75
2023/01/13 14:39:13;;;;;;;;;3.00;2.00;;;;;12.84;100.00;101613.75;4971755;28;50759;-74
2023/01/13 14:41:42;;;;;;;;;3.00;1.50;;;;;12.84;100.00;101600.56;4953905;28;50591;-70
2023/01/13 14:44:21;;;;;;;;;1.75;1.50;;;;;12.10;100.00;101496.84;4965711;28;50285;-71
2023/01/13 14:46:48;;;;;;;;;2.00;1.75;;;;;12.67;100.00;101585.19;4965652;28;49953;-71
2023/01/13 14:49:41;;;;;;;;;1.75;1.50;;;;;12.31;100.00;101531.59;4961344;28;51028;-74
2023/01/13 14:52:12;;;;;;;;;4.00;3.00;;;;;12.73;100.00;101616.94;4960676;28;50032;-70
2023/01/13 14:54:41;;;;;;;;;1.00;1.00;;;;;12.18;100.00;101541.78;4964528;28;50279;-74
2023/01/13 14:57:31;;;;;;;;;3.75;1.25;;;;;12.61;100.00;101633.31;4957348;28;50694;-74
2023/01/13 15:00:12;;;;;;;;;4.75;1.25;;;;;12.58;100.00;101639.41;4961156;28;49845;-74
2023/01/13 15:02:57;;;;;;;;;6.25;2.00;;;;;11.27;100.00;101455.91;4962774;28;49943;-75
2023/01/13 15:05:29;;;;;;;;;5.50;3.50;;;;;11.36;100.00;101446.53;4969879;28;50098;-74
2023/01/13 15:07:56;;;;;;;;;3.50;1.25;;;;;12.45;100.00;101641.66;4968127;28;49811;-75
2023/01/13 15:10:26;;;;;;;;;1.00;1.00;;;;;12.25;100.00;101614.78;4952265;28;51215;-75
2023/01/13 15:12:54;;;;;;;;;3.00;2.75;;;;;12.40;100.00;101644.19;4957259;28;50028;-75
2023/01/13 15:15:19;;;;;;;;;1.75;1.25;;;;;12.38;100.00;101663.44;4960814;28;50754;-74
2023/01/13 15:17:48;;;;;;;;;2.50;1.50;;;;;12.16;100.00;101685.59;4961580;28;49876;-75
2023/01/13 15:20:15;;;;;;;;;1.00;1.00;;;;;10.99;100.00;101517.25;4965471;28;52175;-75
2023/01/13 15:22:41;;;;;;;;;4.00;3.00;;;;;11.14;100.00;101529.13;4962657;28;49838;-75
2023/01/13 15:25:08;;;;;;;;;1.50;1.50;;;;;10.27;100.00;101391.59;4962298;28;49728;-74
2023/01/13 15:27:35;;;;;;;;;3.00;3.00;;;;;11.01;100.00;101537.50;4968943;28;50022;-74
2023/01/13 15:30:02;;;;;;;;;4.00;2.00;;;;;11.34;100.00;101653.28;4965244;28;49814;-75
2023/01/13 15:32:27;;;;;;;;;2.75;2.75;;;;;10.43;100.00;101483.09;4965520;28;50051;-76
2023/01/13 15:34:53;;;;;;;;;2.00;2.00;;;;;11.56;100.00;101690.75;4966576;28;50847;-75
2023/01/13 15:37:18;;;;;;;;;1.00;1.00;;;;;9.88;100.00;101440.97;4965546;28;50157;-75
2023/01/13 15:39:45;;;;;;;;;1.25;1.25;;;;;9.70;100.00;101399.25;4963335;28;51129;-76
2023/01/13 15:47:43;;;;;;;;;3.75;3.25;;;;;10.59;100.00;101607.88;4966812;28;49889;-75
2023/01/13 15:50:17;;;;;;;;;2.75;1.75;;;;;10.93;100.00;101644.06;4968759;28;51035;-75
2023/01/13 15:52:43;;;;;;;;;2.00;1.00;;;;;10.84;100.00;101657.78;4967007;28;50848;-75
2023/01/13 15:55:09;;;;;;;;;3.00;3.00;;;;;9.50;100.00;101416.03;4960877;28;50812;-75
2023/01/13 15:57:38;;;;;;;;;1.00;1.00;;;;;11.34;100.00;101753.19;4967267;28;50439;-75
2023/01/13 16:00:13;;;;;;;;;5.75;3.25;;;;;11.31;100.00;101742.56;4964927;28;49743;-75
2023/01/13 16:02:39;;;;;;;;;4.00;4.00;;;;;9.86;100.00;101527.47;4966253;28;49726;-75
2023/01/13 16:05:05;;;;;;;;;2.25;2.25;;;;;10.49;100.00;101622.41;4965520;28;50381;-75
2023/01/13 16:07:31;;;;;;;;;1.00;1.00;;;;;9.92;100.00;101521.53;4965677;28;50208;-75
2023/01/13 16:09:56;;;;;;;;;1.00;1.00;;;;;11.07;100.00;101733.84;4962339;28;49839;-75
2023/01/13 16:12:22;;;;;;;;;2.75;1.00;;;;;9.90;100.00;101568.69;4953857;28;49969;-74
2023/01/13 16:14:47;;;;;;;;;4.25;2.00;;;;;9.60;100.00;101526.50;4960021;28;49906;-74
2023/01/13 16:17:18;;;;;;;;;5.00;4.00;;;;;9.81;100.00;101567.44;4965966;28;50778;-74
2023/01/13 16:19:44;;;;;;;;;2.75;2.00;;;;;10.74;100.00;101738.84;4964020;28;49993;-69
2023/01/13 16:22:10;;;;;;;;;4.75;3.25;;;;;10.36;100.00;101666.56;4965689;28;50188;-71
2023/01/13 16:24:36;;;;;;;;;3.25;2.00;;;;;10.33;100.00;101659.50;4965874;28;49863;-72
2023/01/13 16:27:12;;;;;;;;;3.75;3.00;;;;;10.40;100.00;101707.81;4971414;28;49814;-72
2023/01/13 16:29:38;;;;;;;;;3.25;3.25;;;;;10.46;100.00;101718.56;4977806;28;49865;-73
2023/01/13 16:32:03;;;;;;;;;2.25;2.25;;;;;9.34;100.00;101556.97;4967354;28;49988;-86
2023/01/13 16:34:28;;;;;;;;;4.00;4.00;;;;;9.65;100.00;101597.44;4964432;28;50240;-75
2023/01/13 16:36:54;;;;;;;;;2.00;1.50;;;;;10.48;100.00;101757.16;4977110;28;49950;-77
2023/01/13 16:39:21;;;;;;;;;4.00;3.00;;;;;9.50;100.00;101591.63;4968733;28;50081;-76
2023/01/13 16:41:47;;;;;;;;;2.00;2.00;;;;;9.50;100.00;101623.09;4955610;28;50230;-76
2023/01/13 16:44:12;;;;;;;;;3.75;2.00;;;;;10.38;100.00;101768.16;4966735;28;49895;-75
2023/01/13 16:46:38;;;;;;;;;5.50;1.75;;;;;10.28;100.00;101756.41;4966583;28;50331;-75
2023/01/13 16:49:05;;;;;;;;;4.00;4.00;;;;;10.02;100.00;101720.38;4964100;28;50614;-74
2023/01/13 16:51:30;;;;;;;;;2.50;0.75;;;;;8.87;100.00;101553.38;4969367;28;49801;-66
2023/01/13 16:53:56;;;;;;;;;3.25;3.25;;;;;10.29;100.00;101786.16;4969869;28;50008;-69
2023/01/13 16:56:23;;;;;;;;;5.25;2.25;;;;;10.45;100.00;101829.66;4969446;28;49588;-73
2023/01/13 16:58:49;;;;;;;;;4.75;2.50;;;;;10.35;100.00;101817.03;4950469;28;50655;-72
2023/01/13 17:01:19;;;;;;;;;4.00;3.75;;;;;9.99;100.00;101765.75;4966154;28;50234;-72
2023/01/13 17:03:47;;;;;;;;;3.25;3.25;;;;;10.13;100.00;101795.13;4969963;28;49920;-66
2023/01/13 17:06:15;;;;;;;;;2.00;1.00;;;;;9.89;100.00;101754.84;4969523;28;50065;-77
2023/01/13 17:08:40;;;;;;;;;2.00;2.00;;;;;9.88;100.00;101759.19;4967341;28;50033;-66
2023/01/13 17:11:06;;;;;;;;;1.00;1.00;;;;;10.12;100.00;101811.72;4966669;28;50404;-64
2023/01/13 17:13:31;;;;;;;;;2.00;2.00;;;;;9.94;100.00;101782.13;4969658;28;49990;-67
2023/01/13 17:15:57;;;;;;;;;3.75;3.75;;;;;10.10;100.00;101809.88;4970043;28;49973;-67
2023/01/13 17:18:22;;;;;;;;;4.00;3.00;;;;;9.96;100.00;101790.97;4968903;28;50889;-68
2023/01/13 17:20:47;;;;;;;;;6.00;3.50;;;;;9.99;100.00;101797.22;4969104;28;49784;-67
2023/01/13 17:23:13;;;;;;;;;3.75;3.25;;;;;10.17;100.00;101839.03;4967967;28;50428;-74
2023/01/13 17:25:39;;;;;;;;;3.25;3.00;;;;;10.16;100.00;101837.25;4970615;28;49888;-72
2023/01/13 17:28:04;;;;;;;;;2.75;2.00;;;;;10.08;100.00;101829.91;4970254;28;55833;-74
2023/01/13 17:30:29;;;;;;;;;2.75;2.25;;;;;9.95;100.00;101807.56;4971380;28;49635;-69
2023/01/13 17:32:55;;;;;;;;;2.00;1.00;;;;;10.12;100.00;101872.06;4971546;28;49854;-73
2023/01/13 17:35:23;;;;;;;;;3.00;3.00;;;;;10.04;100.00;101849.91;4971685;28;49744;-73
2023/01/13 17:37:49;;;;;;;;;2.50;2.00;;;;;9.91;100.00;101831.84;4971319;28;50705;-73
2023/01/13 17:40:15;;;;;;;;;3.75;2.50;;;;;10.05;100.00;101864.81;4973186;28;49790;-73
2023/01/13 17:42:41;;;;;;;;;2.00;1.25;;;;;10.06;100.00;101863.97;4970627;28;49689;-73
2023/01/13 17:45:08;;;;;;;;;2.00;1.00;;;;;9.86;100.00;101841.28;4970520;28;49944;-71
2023/01/13 17:47:33;;;;;;;;;7.00;3.75;;;;;9.94;100.00;101853.88;4970324;28;49893;-72
2023/01/13 17:49:58;;;;;;;;;2.50;2.00;;;;;9.93;100.00;101872.16;4969087;28;49845;-71
2023/01/13 17:52:24;;;;;;;;;5.00;2.00;;;;;10.05;100.00;101893.66;4969559;28;49893;-71
2023/01/13 17:54:49;;;;;;;;;2.25;1.25;;;;;10.00;100.00;101888.22;4970954;28;49976;-69
2023/01/13 17:57:14;;;;;;;;;2.00;1.50;;;;;9.87;100.00;101862.31;4968613;28;50928;-71
2023/01/13 17:59:40;;;;;;;;;3.75;2.00;;;;;9.94;100.00;101882.72;4970631;28;49657;-75
2023/01/13 18:02:05;;;;;;;;;4.50;3.25;;;;;9.95;100.00;101891.50;4970908;28;49586;-73
2023/01/13 18:04:31;;;;;;;;;1.75;1.00;;;;;9.92;100.00;101889.63;4969867;28;49923;-74
2023/01/13 18:06:56;;;;;;;;;3.50;2.75;;;;;9.92;100.00;101905.34;4970544;28;52075;-71
2023/01/13 18:09:22;;;;;;;;;3.00;3.00;;;;;9.91;100.00;101884.31;4971097;28;49918;-74
2023/01/13 18:11:48;;;;;;;;;8.50;5.25;;;;;9.92;100.00;101901.84;4970636;28;49744;-73